Collins, Indiana
Current Conditions -  °F | °C
As of 8:54 PM on Saturday 22 Nov 2014 (Local Time) from KFWA Reporting Station
Overcast Overcast  
Wind Chill: 50°   Ceiling: 3700
Heat Index: 50°   Visibility: 10mi
Dew Point: 41°   Wind: 14mph
Humidity: 71%   Direction: 200°SSW
Pressure: 29.99"   Gusts: NA
Location:  41.1479°N, 85.4772°W
Report Text: KFWA 230154Z 20012KT 10SM OVC037 10/05 A2999 RMK AO2 SLP158 T01000050
Loading
Personal Weather Stations






























Interactive Weather Map New forecast layout! Learn more

10-Day Weather Forecast

Advertisements
Track Severe Weather on mobile